sensor_id;sensor_type;location;lat;lon;timestamp;temperature;humidity
39255;DHT22;24957;51.386;-2.352;2022-11-23T00:01:34;8.70;99.90
39255;DHT22;24957;51.386;-2.352;2022-11-23T00:04:06;8.80;99.90
39255;DHT22;24957;51.386;-2.352;2022-11-23T00:06:33;8.70;99.90
39255;DHT22;24957;51.386;-2.352;2022-11-23T00:08:58;8.70;99.90
39255;DHT22;24957;51.386;-2.352;2022-11-23T00:11:26;8.70;99.90
39255;DHT22;24957;51.386;-2.352;2022-11-23T00:13:52;8.70;99.90
39255;DHT22;24957;51.386;-2.352;2022-11-23T00:16:21;8.60;99.90
39255;DHT22;24957;51.386;-2.352;2022-11-23T00:18:47;8.60;99.90
39255;DHT22;24957;51.386;-2.352;2022-11-23T00:21:17;8.60;99.90
39255;DHT22;24957;51.386;-2.352;2022-11-23T00:23:43;8.50;99.90
39255;DHT22;24957;51.386;-2.352;2022-11-23T00:26:10;8.60;99.90
39255;DHT22;24957;51.386;-2.352;2022-11-23T00:28:36;8.60;99.90
39255;DHT22;24957;51.386;-2.352;2022-11-23T00:31:05;8.50;99.90
39255;DHT22;24957;51.386;-2.352;2022-11-23T00:33:31;8.40;99.90
39255;DHT22;24957;51.386;-2.352;2022-11-23T00:36:02;8.40;99.90
39255;DHT22;24957;51.386;-2.352;2022-11-23T00:38:28;8.30;99.90
39255;DHT22;24957;51.386;-2.352;2022-11-23T00:41:05;8.20;99.90
39255;DHT22;24957;51.386;-2.352;2022-11-23T00:43:33;8.30;99.90
39255;DHT22;24957;51.386;-2.352;2022-11-23T00:48:45;8.20;99.90
39255;DHT22;24957;51.386;-2.352;2022-11-23T00:51:13;8.10;99.90
39255;DHT22;24957;51.386;-2.352;2022-11-23T00:53:40;8.10;99.90
39255;DHT22;24957;51.386;-2.352;2022-11-23T00:56:06;8.00;99.90
39255;DHT22;24957;51.386;-2.352;2022-11-23T00:58:32;7.90;99.90
39255;DHT22;24957;51.386;-2.352;2022-11-23T01:03:27;7.80;99.90
39255;DHT22;24957;51.386;-2.352;2022-11-23T01:05:53;7.70;99.90
39255;DHT22;24957;51.386;-2.352;2022-11-23T01:08:19;7.70;99.90
39255;DHT22;24957;51.386;-2.352;2022-11-23T01:10:44;7.70;99.90
39255;DHT22;24957;51.386;-2.352;2022-11-23T01:13:10;7.70;99.90
39255;DHT22;24957;51.386;-2.352;2022-11-23T01:15:36;7.60;99.90
39255;DHT22;24957;51.386;-2.352;2022-11-23T01:18:01;7.50;99.90
39255;DHT22;24957;51.386;-2.352;2022-11-23T01:20:27;7.50;99.90
39255;DHT22;24957;51.386;-2.352;2022-11-23T01:22:53;7.50;99.90
39255;DHT22;24957;51.386;-2.352;2022-11-23T01:25:18;7.50;99.90
39255;DHT22;24957;51.386;-2.352;2022-11-23T01:27:44;7.50;99.90
39255;DHT22;24957;51.386;-2.352;2022-11-23T01:30:10;7.50;99.90
39255;DHT22;24957;51.386;-2.352;2022-11-23T01:32:36;7.50;99.90
39255;DHT22;24957;51.386;-2.352;2022-11-23T01:35:01;7.40;99.90
39255;DHT22;24957;51.386;-2.352;2022-11-23T01:37:27;7.40;99.90
39255;DHT22;24957;51.386;-2.352;2022-11-23T01:39:53;7.40;99.90
39255;DHT22;24957;51.386;-2.352;2022-11-23T01:42:18;7.40;99.90
39255;DHT22;24957;51.386;-2.352;2022-11-23T01:44:44;7.40;99.90
39255;DHT22;24957;51.386;-2.352;2022-11-23T01:47:09;7.40;99.90
39255;DHT22;24957;51.386;-2.352;2022-11-23T01:49:41;7.30;99.90
39255;DHT22;24957;51.386;-2.352;2022-11-23T01:52:18;7.30;99.90
39255;DHT22;24957;51.386;-2.352;2022-11-23T01:54:53;7.40;99.90
39255;DHT22;24957;51.386;-2.352;2022-11-23T01:57:37;7.40;99.90
39255;DHT22;24957;51.386;-2.352;2022-11-23T02:00:04;7.50;99.90
39255;DHT22;24957;51.386;-2.352;2022-11-23T02:02:30;7.40;99.90
39255;DHT22;24957;51.386;-2.352;2022-11-23T02:04:58;7.30;99.90
39255;DHT22;24957;51.386;-2.352;2022-11-23T02:07:24;7.30;99.90
39255;DHT22;24957;51.386;-2.352;2022-11-23T02:09:51;7.10;99.90
39255;DHT22;24957;51.386;-2.352;2022-11-23T02:12:17;7.10;99.90
39255;DHT22;24957;51.386;-2.352;2022-11-23T02:14:43;7.00;99.90
39255;DHT22;24957;51.386;-2.352;2022-11-23T02:17:10;6.90;99.90
39255;DHT22;24957;51.386;-2.352;2022-11-23T02:19:42;6.90;99.90
39255;DHT22;24957;51.386;-2.352;2022-11-23T02:23:06;6.90;99.90
39255;DHT22;24957;51.386;-2.352;2022-11-23T02:27:50;6.60;99.90
39255;DHT22;24957;51.386;-2.352;2022-11-23T02:30:16;6.60;99.90
39255;DHT22;24957;51.386;-2.352;2022-11-23T02:32:43;6.60;99.90
39255;DHT22;24957;51.386;-2.352;2022-11-23T02:35:09;6.50;99.90
39255;DHT22;24957;51.386;-2.352;2022-11-23T02:37:35;6.50;99.90
39255;DHT22;24957;51.386;-2.352;2022-11-23T02:40:01;6.50;99.90
39255;DHT22;24957;51.386;-2.352;2022-11-23T02:42:29;6.40;99.90
39255;DHT22;24957;51.386;-2.352;2022-11-23T02:45:20;6.40;99.90
39255;DHT22;24957;51.386;-2.352;2022-11-23T02:47:47;6.30;99.90
39255;DHT22;24957;51.386;-2.352;2022-11-23T02:50:14;6.50;99.90
39255;DHT22;24957;51.386;-2.352;2022-11-23T02:52:40;6.70;99.90
39255;DHT22;24957;51.386;-2.352;2022-11-23T02:55:06;6.90;99.90
39255;DHT22;24957;51.386;-2.352;2022-11-23T02:57:31;6.90;99.90
39255;DHT22;24957;51.386;-2.352;2022-11-23T02:59:57;7.00;99.90
39255;DHT22;24957;51.386;-2.352;2022-11-23T03:02:23;7.10;99.90
39255;DHT22;24957;51.386;-2.352;2022-11-23T03:04:48;7.40;99.90
39255;DHT22;24957;51.386;-2.352;2022-11-23T03:07:14;7.20;99.90
39255;DHT22;24957;51.386;-2.352;2022-11-23T03:09:39;7.10;99.90
39255;DHT22;24957;51.386;-2.352;2022-11-23T03:12:05;7.20;99.90
39255;DHT22;24957;51.386;-2.352;2022-11-23T03:14:31;7.30;99.90
39255;DHT22;24957;51.386;-2.352;2022-11-23T03:16:57;7.40;99.90
39255;DHT22;24957;51.386;-2.352;2022-11-23T03:19:23;7.50;99.90
39255;DHT22;24957;51.386;-2.352;2022-11-23T03:21:48;7.50;99.90
39255;DHT22;24957;51.386;-2.352;2022-11-23T03:24:14;7.60;99.90
39255;DHT22;24957;51.386;-2.352;2022-11-23T03:26:40;7.60;99.90
39255;DHT22;24957;51.386;-2.352;2022-11-23T03:29:06;7.70;99.90
39255;DHT22;24957;51.386;-2.352;2022-11-23T03:31:31;7.70;99.90
39255;DHT22;24957;51.386;-2.352;2022-11-23T03:33:57;7.80;99.90
39255;DHT22;24957;51.386;-2.352;2022-11-23T03:36:22;8.00;99.90
39255;DHT22;24957;51.386;-2.352;2022-11-23T03:38:48;8.00;99.90
39255;DHT22;24957;51.386;-2.352;2022-11-23T03:41:14;8.20;99.90
39255;DHT22;24957;51.386;-2.352;2022-11-23T03:43:39;8.20;99.90
39255;DHT22;24957;51.386;-2.352;2022-11-23T03:46:05;8.20;99.90
39255;DHT22;24957;51.386;-2.352;2022-11-23T03:48:30;8.20;99.90
39255;DHT22;24957;51.386;-2.352;2022-11-23T03:50:56;8.20;99.90
39255;DHT22;24957;51.386;-2.352;2022-11-23T03:53:22;8.20;99.90
39255;DHT22;24957;51.386;-2.352;2022-11-23T03:55:47;8.30;99.90
39255;DHT22;24957;51.386;-2.352;2022-11-23T03:58:13;8.40;99.90
39255;DHT22;24957;51.386;-2.352;2022-11-23T04:00:39;8.40;99.90
39255;DHT22;24957;51.386;-2.352;2022-11-23T04:03:04;8.40;99.90
39255;DHT22;24957;51.386;-2.352;2022-11-23T04:05:30;8.40;99.90
39255;DHT22;24957;51.386;-2.352;2022-11-23T04:07:56;8.40;99.90
39255;DHT22;24957;51.386;-2.352;2022-11-23T04:10:21;8.60;99.90
39255;DHT22;24957;51.386;-2.352;2022-11-23T04:12:51;8.70;99.90
39255;DHT22;24957;51.386;-2.352;2022-11-23T04:15:17;8.90;99.90
39255;DHT22;24957;51.386;-2.352;2022-11-23T04:17:43;9.00;99.90
39255;DHT22;24957;51.386;-2.352;2022-11-23T04:20:08;9.00;99.90
39255;DHT22;24957;51.386;-2.352;2022-11-23T04:22:34;9.10;99.90
39255;DHT22;24957;51.386;-2.352;2022-11-23T04:25:00;9.20;99.90
39255;DHT22;24957;51.386;-2.352;2022-11-23T04:27:26;9.30;99.90
39255;DHT22;24957;51.386;-2.352;2022-11-23T04:29:51;9.40;99.90
39255;DHT22;24957;51.386;-2.352;2022-11-23T04:32:17;9.50;99.90
39255;DHT22;24957;51.386;-2.352;2022-11-23T04:34:43;9.50;99.90
39255;DHT22;24957;51.386;-2.352;2022-11-23T04:37:08;9.60;99.90
39255;DHT22;24957;51.386;-2.352;2022-11-23T04:39:34;9.60;99.90
39255;DHT22;24957;51.386;-2.352;2022-11-23T04:42:00;9.60;99.90
39255;DHT22;24957;51.386;-2.352;2022-11-23T04:44:25;9.70;99.90
39255;DHT22;24957;51.386;-2.352;2022-11-23T04:46:51;9.70;99.90
39255;DHT22;24957;51.386;-2.352;2022-11-23T04:49:17;9.80;99.90
39255;DHT22;24957;51.386;-2.352;2022-11-23T04:51:43;9.90;99.90
39255;DHT22;24957;51.386;-2.352;2022-11-23T04:54:09;9.90;99.90
39255;DHT22;24957;51.386;-2.352;2022-11-23T04:56:34;10.00;99.90
39255;DHT22;24957;51.386;-2.352;2022-11-23T04:59:00;10.00;99.90
39255;DHT22;24957;51.386;-2.352;2022-11-23T05:01:25;10.00;99.90
39255;DHT22;24957;51.386;-2.352;2022-11-23T05:03:51;9.90;99.90
39255;DHT22;24957;51.386;-2.352;2022-11-23T05:06:17;10.00;99.90
39255;DHT22;24957;51.386;-2.352;2022-11-23T05:08:42;9.90;99.90
39255;DHT22;24957;51.386;-2.352;2022-11-23T05:11:08;9.90;99.90
39255;DHT22;24957;51.386;-2.352;2022-11-23T05:13:34;9.90;99.90
39255;DHT22;24957;51.386;-2.352;2022-11-23T05:15:59;9.90;99.90
39255;DHT22;24957;51.386;-2.352;2022-11-23T05:18:25;10.00;99.90
39255;DHT22;24957;51.386;-2.352;2022-11-23T05:20:51;9.90;99.90
39255;DHT22;24957;51.386;-2.352;2022-11-23T05:23:16;10.00;99.90
39255;DHT22;24957;51.386;-2.352;2022-11-23T05:25:42;10.00;99.90
39255;DHT22;24957;51.386;-2.352;2022-11-23T05:28:16;10.00;99.90
39255;DHT22;24957;51.386;-2.352;2022-11-23T05:30:43;10.00;99.90
39255;DHT22;24957;51.386;-2.352;2022-11-23T05:33:09;10.00;99.90
39255;DHT22;24957;51.386;-2.352;2022-11-23T05:35:34;10.00;99.90
39255;DHT22;24957;51.386;-2.352;2022-11-23T05:38:00;10.00;99.90
39255;DHT22;24957;51.386;-2.352;2022-11-23T05:40:26;10.00;99.90
39255;DHT22;24957;51.386;-2.352;2022-11-23T05:42:58;10.00;99.90
39255;DHT22;24957;51.386;-2.352;2022-11-23T05:45:25;10.10;99.90
39255;DHT22;24957;51.386;-2.352;2022-11-23T05:47:52;10.10;99.90
39255;DHT22;24957;51.386;-2.352;2022-11-23T05:50:19;10.10;99.90
39255;DHT22;24957;51.386;-2.352;2022-11-23T05:52:44;10.10;99.90
39255;DHT22;24957;51.386;-2.352;2022-11-23T05:55:10;10.20;99.90
39255;DHT22;24957;51.386;-2.352;2022-11-23T05:57:36;10.20;99.90
39255;DHT22;24957;51.386;-2.352;2022-11-23T06:00:03;10.10;99.90
39255;DHT22;24957;51.386;-2.352;2022-11-23T06:02:29;10.20;99.90
39255;DHT22;24957;51.386;-2.352;2022-11-23T06:04:55;10.30;99.90
39255;DHT22;24957;51.386;-2.352;2022-11-23T06:07:20;10.30;99.90
39255;DHT22;24957;51.386;-2.352;2022-11-23T06:09:46;10.40;99.90
39255;DHT22;24957;51.386;-2.352;2022-11-23T06:12:12;10.40;99.90
39255;DHT22;24957;51.386;-2.352;2022-11-23T06:14:37;10.40;99.90
39255;DHT22;24957;51.386;-2.352;2022-11-23T06:17:03;10.40;99.90
39255;DHT22;24957;51.386;-2.352;2022-11-23T06:19:29;10.50;99.90
39255;DHT22;24957;51.386;-2.352;2022-11-23T06:21:56;10.50;99.90
39255;DHT22;24957;51.386;-2.352;2022-11-23T06:24:22;10.60;99.90
39255;DHT22;24957;51.386;-2.352;2022-11-23T06:26:52;10.60;99.90
39255;DHT22;24957;51.386;-2.352;2022-11-23T06:29:19;10.50;99.90
39255;DHT22;24957;51.386;-2.352;2022-11-23T06:31:45;10.50;99.90
39255;DHT22;24957;51.386;-2.352;2022-11-23T06:34:11;10.50;99.90
39255;DHT22;24957;51.386;-2.352;2022-11-23T06:36:37;10.60;99.90
39255;DHT22;24957;51.386;-2.352;2022-11-23T06:39:03;10.80;99.90
39255;DHT22;24957;51.386;-2.352;2022-11-23T06:41:29;10.80;99.90
39255;DHT22;24957;51.386;-2.352;2022-11-23T06:43:55;10.80;99.90
39255;DHT22;24957;51.386;-2.352;2022-11-23T06:46:20;10.80;99.90
39255;DHT22;24957;51.386;-2.352;2022-11-23T06:48:46;10.90;99.90
39255;DHT22;24957;51.386;-2.352;2022-11-23T06:51:13;11.00;99.90
39255;DHT22;24957;51.386;-2.352;2022-11-23T06:53:39;10.90;99.90
39255;DHT22;24957;51.386;-2.352;2022-11-23T06:56:05;11.00;99.90
39255;DHT22;24957;51.386;-2.352;2022-11-23T06:58:31;11.10;99.90
39255;DHT22;24957;51.386;-2.352;2022-11-23T07:01:00;11.10;99.90
39255;DHT22;24957;51.386;-2.352;2022-11-23T07:03:27;11.10;99.90
39255;DHT22;24957;51.386;-2.352;2022-11-23T07:05:52;11.00;99.90
39255;DHT22;24957;51.386;-2.352;2022-11-23T07:08:18;11.10;99.90
39255;DHT22;24957;51.386;-2.352;2022-11-23T07:10:43;11.10;99.90
39255;DHT22;24957;51.386;-2.352;2022-11-23T07:13:10;11.10;99.90
39255;DHT22;24957;51.386;-2.352;2022-11-23T07:15:37;11.10;99.90
39255;DHT22;24957;51.386;-2.352;2022-11-23T07:18:04;11.00;99.90
39255;DHT22;24957;51.386;-2.352;2022-11-23T07:20:29;11.00;99.90
39255;DHT22;24957;51.386;-2.352;2022-11-23T07:23:04;11.00;99.90
39255;DHT22;24957;51.386;-2.352;2022-11-23T07:25:32;10.90;99.90
39255;DHT22;24957;51.386;-2.352;2022-11-23T07:27:59;10.80;99.90
39255;DHT22;24957;51.386;-2.352;2022-11-23T07:30:27;10.80;99.90
39255;DHT22;24957;51.386;-2.352;2022-11-23T07:33:05;10.90;99.90
39255;DHT22;24957;51.386;-2.352;2022-11-23T07:35:33;10.90;99.90
39255;DHT22;24957;51.386;-2.352;2022-11-23T07:37:59;10.80;99.90
39255;DHT22;24957;51.386;-2.352;2022-11-23T07:40:25;10.80;99.90
39255;DHT22;24957;51.386;-2.352;2022-11-23T07:42:50;10.80;99.90
39255;DHT22;24957;51.386;-2.352;2022-11-23T07:45:16;10.70;99.90
39255;DHT22;24957;51.386;-2.352;2022-11-23T07:47:42;10.70;99.90
39255;DHT22;24957;51.386;-2.352;2022-11-23T07:50:09;10.70;99.90
39255;DHT22;24957;51.386;-2.352;2022-11-23T07:52:35;10.70;99.90
39255;DHT22;24957;51.386;-2.352;2022-11-23T07:55:01;10.70;99.90
39255;DHT22;24957;51.386;-2.352;2022-11-23T07:57:27;10.60;99.90
39255;DHT22;24957;51.386;-2.352;2022-11-23T07:59:53;10.40;99.90
39255;DHT22;24957;51.386;-2.352;2022-11-23T08:02:19;10.20;99.90
39255;DHT22;24957;51.386;-2.352;2022-11-23T08:04:45;10.10;99.90
39255;DHT22;24957;51.386;-2.352;2022-11-23T08:07:11;9.90;99.90
39255;DHT22;24957;51.386;-2.352;2022-11-23T08:09:37;9.80;99.90
39255;DHT22;24957;51.386;-2.352;2022-11-23T08:12:03;9.80;99.90
39255;DHT22;24957;51.386;-2.352;2022-11-23T08:14:29;9.70;99.90
39255;DHT22;24957;51.386;-2.352;2022-11-23T08:16:55;9.80;99.90
39255;DHT22;24957;51.386;-2.352;2022-11-23T08:19:21;9.80;99.90
39255;DHT22;24957;51.386;-2.352;2022-11-23T08:21:46;9.90;99.90
39255;DHT22;24957;51.386;-2.352;2022-11-23T08:24:12;9.90;99.90
39255;DHT22;24957;51.386;-2.352;2022-11-23T08:26:39;9.90;99.90
39255;DHT22;24957;51.386;-2.352;2022-11-23T08:29:04;9.90;99.90
39255;DHT22;24957;51.386;-2.352;2022-11-23T08:31:30;10.00;99.90
39255;DHT22;24957;51.386;-2.352;2022-11-23T08:33:56;10.00;99.90
39255;DHT22;24957;51.386;-2.352;2022-11-23T08:36:22;10.10;99.90
39255;DHT22;24957;51.386;-2.352;2022-11-23T08:38:50;10.10;99.90
39255;DHT22;24957;51.386;-2.352;2022-11-23T08:41:17;10.10;99.90
39255;DHT22;24957;51.386;-2.352;2022-11-23T08:43:52;10.10;99.90
39255;DHT22;24957;51.386;-2.352;2022-11-23T08:46:18;10.10;99.90
39255;DHT22;24957;51.386;-2.352;2022-11-23T08:48:47;10.20;99.90
39255;DHT22;24957;51.386;-2.352;2022-11-23T08:51:16;10.10;99.90
39255;DHT22;24957;51.386;-2.352;2022-11-23T08:53:50;10.00;99.90
39255;DHT22;24957;51.386;-2.352;2022-11-23T08:56:18;9.80;99.90
39255;DHT22;24957;51.386;-2.352;2022-11-23T08:58:45;9.70;99.90
39255;DHT22;24957;51.386;-2.352;2022-11-23T09:01:11;9.70;99.90
39255;DHT22;24957;51.386;-2.352;2022-11-23T09:03:40;9.70;99.90
39255;DHT22;24957;51.386;-2.352;2022-11-23T09:06:06;9.70;99.90
39255;DHT22;24957;51.386;-2.352;2022-11-23T09:08:32;9.80;99.90
39255;DHT22;24957;51.386;-2.352;2022-11-23T09:10:59;9.90;99.90
39255;DHT22;24957;51.386;-2.352;2022-11-23T09:13:35;9.90;99.90
39255;DHT22;24957;51.386;-2.352;2022-11-23T09:16:02;10.00;99.90
39255;DHT22;24957;51.386;-2.352;2022-11-23T09:18:29;10.00;99.90
39255;DHT22;24957;51.386;-2.352;2022-11-23T09:20:55;10.20;99.90
39255;DHT22;24957;51.386;-2.352;2022-11-23T09:23:21;10.20;99.90
39255;DHT22;24957;51.386;-2.352;2022-11-23T09:25:47;10.30;99.90
39255;DHT22;24957;51.386;-2.352;2022-11-23T09:28:15;10.40;99.90
39255;DHT22;24957;51.386;-2.352;2022-11-23T09:30:40;10.60;99.90
39255;DHT22;24957;51.386;-2.352;2022-11-23T09:33:07;10.60;99.90
39255;DHT22;24957;51.386;-2.352;2022-11-23T09:35:33;10.60;99.90
39255;DHT22;24957;51.386;-2.352;2022-11-23T09:37:59;10.40;99.90
39255;DHT22;24957;51.386;-2.352;2022-11-23T09:40:29;10.30;99.90
39255;DHT22;24957;51.386;-2.352;2022-11-23T09:45:54;9.90;99.90
39255;DHT22;24957;51.386;-2.352;2022-11-23T09:49:07;9.90;99.90
39255;DHT22;24957;51.386;-2.352;2022-11-23T09:51:36;9.90;99.90
39255;DHT22;24957;51.386;-2.352;2022-11-23T09:54:10;10.00;99.90
39255;DHT22;24957;51.386;-2.352;2022-11-23T09:56:41;10.20;99.90
39255;DHT22;24957;51.386;-2.352;2022-11-23T09:59:17;10.20;99.90
39255;DHT22;24957;51.386;-2.352;2022-11-23T10:01:47;10.40;99.90
39255;DHT22;24957;51.386;-2.352;2022-11-23T10:04:16;10.60;99.90
39255;DHT22;24957;51.386;-2.352;2022-11-23T10:06:43;10.70;99.90
39255;DHT22;24957;51.386;-2.352;2022-11-23T10:09:38;10.70;99.90
39255;DHT22;24957;51.386;-2.352;2022-11-23T10:14:50;10.90;99.90
39255;DHT22;24957;51.386;-2.352;2022-11-23T10:22:53;10.90;99.90
39255;DHT22;24957;51.386;-2.352;2022-11-23T10:25:21;10.90;99.90
39255;DHT22;24957;51.386;-2.352;2022-11-23T10:27:49;10.80;99.90
39255;DHT22;24957;51.386;-2.352;2022-11-23T10:30:16;10.90;99.90
39255;DHT22;24957;51.386;-2.352;2022-11-23T10:35:29;10.70;99.90
39255;DHT22;24957;51.386;-2.352;2022-11-23T10:38:11;10.60;99.90
39255;DHT22;24957;51.386;-2.352;2022-11-23T10:40:40;10.60;99.90
39255;DHT22;24957;51.386;-2.352;2022-11-23T10:43:17;10.50;99.90
39255;DHT22;24957;51.386;-2.352;2022-11-23T10:45:45;10.50;99.90
39255;DHT22;24957;51.386;-2.352;2022-11-23T10:48:11;10.30;99.90
39255;DHT22;24957;51.386;-2.352;2022-11-23T10:50:38;10.30;99.90
39255;DHT22;24957;51.386;-2.352;2022-11-23T10:55:54;10.40;99.90
39255;DHT22;24957;51.386;-2.352;2022-11-23T10:58:44;10.30;99.90
39255;DHT22;24957;51.386;-2.352;2022-11-23T11:01:23;10.50;99.90
39255;DHT22;24957;51.386;-2.352;2022-11-23T11:03:53;10.50;99.90
39255;DHT22;24957;51.386;-2.352;2022-11-23T11:06:29;10.60;99.90
39255;DHT22;24957;51.386;-2.352;2022-11-23T11:11:27;10.70;99.90
39255;DHT22;24957;51.386;-2.352;2022-11-23T11:14:15;10.80;99.90
39255;DHT22;24957;51.386;-2.352;2022-11-23T11:16:51;10.70;99.90
39255;DHT22;24957;51.386;-2.352;2022-11-23T11:19:28;10.80;99.90
39255;DHT22;24957;51.386;-2.352;2022-11-23T11:21:55;10.90;99.90
39255;DHT22;24957;51.386;-2.352;2022-11-23T11:24:30;10.90;99.90
39255;DHT22;24957;51.386;-2.352;2022-11-23T11:26:58;10.90;99.90
39255;DHT22;24957;51.386;-2.352;2022-11-23T11:29:34;11.00;99.90
39255;DHT22;24957;51.386;-2.352;2022-11-23T11:39:54;11.20;99.90
39255;DHT22;24957;51.386;-2.352;2022-11-23T11:42:37;11.20;99.90
39255;DHT22;24957;51.386;-2.352;2022-11-23T11:45:05;11.20;99.90
39255;DHT22;24957;51.386;-2.352;2022-11-23T11:47:46;11.30;99.90
39255;DHT22;24957;51.386;-2.352;2022-11-23T11:50:28;11.30;99.90
39255;DHT22;24957;51.386;-2.352;2022-11-23T11:53:01;11.40;99.90
39255;DHT22;24957;51.386;-2.352;2022-11-23T11:58:14;11.40;99.90
39255;DHT22;24957;51.386;-2.352;2022-11-23T12:00:41;11.40;99.90
39255;DHT22;24957;51.386;-2.352;2022-11-23T12:03:17;11.40;99.90
39255;DHT22;24957;51.386;-2.352;2022-11-23T12:05:48;11.40;99.90
39255;DHT22;24957;51.386;-2.352;2022-11-23T12:08:42;11.50;99.90
39255;DHT22;24957;51.386;-2.352;2022-11-23T12:11:11;11.50;99.90
39255;DHT22;24957;51.386;-2.352;2022-11-23T12:13:41;11.50;99.90
39255;DHT22;24957;51.386;-2.352;2022-11-23T12:30:29;11.70;99.90
39255;DHT22;24957;51.386;-2.352;2022-11-23T12:35:49;11.70;99.90
39255;DHT22;24957;51.386;-2.352;2022-11-23T12:38:29;11.90;99.90
39255;DHT22;24957;51.386;-2.352;2022-11-23T12:57:46;11.80;99.90
39255;DHT22;24957;51.386;-2.352;2022-11-23T13:00:18;11.90;99.90
39255;DHT22;24957;51.386;-2.352;2022-11-23T13:19:46;11.60;99.90
39255;DHT22;24957;51.386;-2.352;2022-11-23T13:22:17;11.60;99.90
39255;DHT22;24957;51.386;-2.352;2022-11-23T13:30:24;12.00;99.90
39255;DHT22;24957;51.386;-2.352;2022-11-23T13:40:35;11.90;99.90
39255;DHT22;24957;51.386;-2.352;2022-11-23T13:45:45;12.00;99.90
39255;DHT22;24957;51.386;-2.352;2022-11-23T13:48:14;12.00;99.90
39255;DHT22;24957;51.386;-2.352;2022-11-23T13:53:36;12.30;99.90
39255;DHT22;24957;51.386;-2.352;2022-11-23T13:56:24;12.40;99.90
39255;DHT22;24957;51.386;-2.352;2022-11-23T13:59:18;12.50;99.90
39255;DHT22;24957;51.386;-2.352;2022-11-23T14:04:36;12.40;99.90
39255;DHT22;24957;51.386;-2.352;2022-11-23T14:09:52;12.20;99.90
39255;DHT22;24957;51.386;-2.352;2022-11-23T14:15:13;11.90;99.90
39255;DHT22;24957;51.386;-2.352;2022-11-23T14:27:21;12.10;99.90
39255;DHT22;24957;51.386;-2.352;2022-11-23T14:29:36;12.10;99.90
39255;DHT22;24957;51.386;-2.352;2022-11-23T14:35:16;12.10;99.90
39255;DHT22;24957;51.386;-2.352;2022-11-23T14:43:15;11.90;99.90
39255;DHT22;24957;51.386;-2.352;2022-11-23T14:45:45;11.80;99.90
39255;DHT22;24957;51.386;-2.352;2022-11-23T14:48:27;11.80;99.90
39255;DHT22;24957;51.386;-2.352;2022-11-23T14:51:01;11.70;99.90
39255;DHT22;24957;51.386;-2.352;2022-11-23T14:53:32;11.50;99.90
39255;DHT22;24957;51.386;-2.352;2022-11-23T14:55:59;11.60;99.90
39255;DHT22;24957;51.386;-2.352;2022-11-23T14:58:29;11.40;99.90
39255;DHT22;24957;51.386;-2.352;2022-11-23T15:01:00;11.40;99.90
39255;DHT22;24957;51.386;-2.352;2022-11-23T15:03:28;11.50;99.90
39255;DHT22;24957;51.386;-2.352;2022-11-23T15:06:12;11.50;99.90
39255;DHT22;24957;51.386;-2.352;2022-11-23T15:09:50;11.50;99.90
39255;DHT22;24957;51.386;-2.352;2022-11-23T15:12:07;11.60;99.90
39255;DHT22;24957;51.386;-2.352;2022-11-23T15:14:44;11.50;99.90
39255;DHT22;24957;51.386;-2.352;2022-11-23T15:17:14;11.50;99.90
39255;DHT22;24957;51.386;-2.352;2022-11-23T15:19:40;11.40;99.90
39255;DHT22;24957;51.386;-2.352;2022-11-23T15:22:15;11.30;99.90
39255;DHT22;24957;51.386;-2.352;2022-11-23T15:24:43;11.30;99.90
39255;DHT22;24957;51.386;-2.352;2022-11-23T15:27:14;11.30;99.90
39255;DHT22;24957;51.386;-2.352;2022-11-23T15:29:53;11.40;99.90
39255;DHT22;24957;51.386;-2.352;2022-11-23T15:32:22;11.40;99.90
39255;DHT22;24957;51.386;-2.352;2022-11-23T15:34:48;11.30;99.90
39255;DHT22;24957;51.386;-2.352;2022-11-23T15:37:16;11.30;99.90
39255;DHT22;24957;51.386;-2.352;2022-11-23T15:39:43;11.20;99.90
39255;DHT22;24957;51.386;-2.352;2022-11-23T15:42:20;11.30;99.90
39255;DHT22;24957;51.386;-2.352;2022-11-23T15:44:47;11.20;99.90
39255;DHT22;24957;51.386;-2.352;2022-11-23T15:47:22;11.10;99.90
39255;DHT22;24957;51.386;-2.352;2022-11-23T15:49:48;11.00;99.90
39255;DHT22;24957;51.386;-2.352;2022-11-23T15:52:15;11.00;99.90
39255;DHT22;24957;51.386;-2.352;2022-11-23T15:54:41;11.00;99.90
39255;DHT22;24957;51.386;-2.352;2022-11-23T15:57:21;11.00;99.90
39255;DHT22;24957;51.386;-2.352;2022-11-23T15:59:53;11.00;99.90
39255;DHT22;24957;51.386;-2.352;2022-11-23T16:02:22;10.90;99.90
39255;DHT22;24957;51.386;-2.352;2022-11-23T16:05:02;10.90;99.90
39255;DHT22;24957;51.386;-2.352;2022-11-23T16:07:29;11.00;99.90
39255;DHT22;24957;51.386;-2.352;2022-11-23T16:10:20;11.00;99.90
39255;DHT22;24957;51.386;-2.352;2022-11-23T16:12:57;11.00;99.90
39255;DHT22;24957;51.386;-2.352;2022-11-23T16:17:52;10.90;99.90
39255;DHT22;24957;51.386;-2.352;2022-11-23T16:20:18;11.00;99.90
39255;DHT22;24957;51.386;-2.352;2022-11-23T16:22:49;10.90;99.90
39255;DHT22;24957;51.386;-2.352;2022-11-23T16:25:27;10.90;99.90
39255;DHT22;24957;51.386;-2.352;2022-11-23T16:28:04;10.90;99.90
39255;DHT22;24957;51.386;-2.352;2022-11-23T16:30:41;10.90;99.90
39255;DHT22;24957;51.386;-2.352;2022-11-23T16:33:15;11.00;99.90
39255;DHT22;24957;51.386;-2.352;2022-11-23T16:35:41;11.00;99.90
39255;DHT22;24957;51.386;-2.352;2022-11-23T16:38:07;11.00;99.90
39255;DHT22;24957;51.386;-2.352;2022-11-23T16:40:33;11.00;99.90
39255;DHT22;24957;51.386;-2.352;2022-11-23T16:42:59;11.10;99.90
39255;DHT22;24957;51.386;-2.352;2022-11-23T16:45:25;11.20;99.90
39255;DHT22;24957;51.386;-2.352;2022-11-23T16:47:52;11.20;99.90
39255;DHT22;24957;51.386;-2.352;2022-11-23T16:50:18;11.20;99.90
39255;DHT22;24957;51.386;-2.352;2022-11-23T16:52:47;11.20;99.90
39255;DHT22;24957;51.386;-2.352;2022-11-23T16:55:16;11.30;99.90
39255;DHT22;24957;51.386;-2.352;2022-11-23T16:57:45;11.20;99.90
39255;DHT22;24957;51.386;-2.352;2022-11-23T17:00:19;11.10;99.90
39255;DHT22;24957;51.386;-2.352;2022-11-23T17:02:45;11.10;99.90
39255;DHT22;24957;51.386;-2.352;2022-11-23T17:05:19;11.10;99.90
39255;DHT22;24957;51.386;-2.352;2022-11-23T17:07:46;11.00;99.90
39255;DHT22;24957;51.386;-2.352;2022-11-23T17:10:12;11.10;99.90
39255;DHT22;24957;51.386;-2.352;2022-11-23T17:12:39;11.00;99.90
39255;DHT22;24957;51.386;-2.352;2022-11-23T17:15:06;11.00;99.90
39255;DHT22;24957;51.386;-2.352;2022-11-23T17:17:32;11.00;99.90
39255;DHT22;24957;51.386;-2.352;2022-11-23T17:19:58;10.90;99.90
39255;DHT22;24957;51.386;-2.352;2022-11-23T17:22:23;11.00;99.90
39255;DHT22;24957;51.386;-2.352;2022-11-23T17:24:49;11.00;99.90
39255;DHT22;24957;51.386;-2.352;2022-11-23T17:27:21;11.00;99.90
39255;DHT22;24957;51.386;-2.352;2022-11-23T17:29:59;11.00;99.90
39255;DHT22;24957;51.386;-2.352;2022-11-23T17:32:25;11.10;99.90
39255;DHT22;24957;51.386;-2.352;2022-11-23T17:34:51;11.10;99.90
39255;DHT22;24957;51.386;-2.352;2022-11-23T17:37:20;11.20;99.90
39255;DHT22;24957;51.386;-2.352;2022-11-23T17:39:46;11.20;99.90
39255;DHT22;24957;51.386;-2.352;2022-11-23T17:42:13;11.20;99.90
39255;DHT22;24957;51.386;-2.352;2022-11-23T17:44:39;11.10;99.90
39255;DHT22;24957;51.386;-2.352;2022-11-23T17:47:06;11.10;99.90
39255;DHT22;24957;51.386;-2.352;2022-11-23T17:49:39;11.10;99.90